Thunder — ERRG — position and weather

sailwx.info

Track history (hours):
 
Tides and Currents Weather Stations Pressure Air Temp Water Temp Dewpoint Dewpoint Depression Visibility Wind Speed Wind Dir Waves Ship Positions

Thunder

Last reported at 2017-Sep-21 03:29 UTC. Time now 2017-Sep-21 03:37 UTC.
Position N 44°21' E 028°41'.

Length 83 m; draft 4.6 m.

Type: Cargo ship. MMSI: 214181807.

Date/timePositionNaut miles runAvg speedWind from/ knotsBaromVisibWave heightAir tempDewpointWater temp
2017-Sep-21 03:29N 44°21' E 028°41'0 0.0
2017-Sep-21 02:59N 44°21' E 028°41'0 0.0
2017-Sep-21 02:29N 44°21' E 028°41'0 0.0
2017-Sep-21 01:59N 44°21' E 028°41'0 0.0
2017-Sep-21 01:29N 44°21' E 028°41'0 0.0
2017-Sep-21 00:59N 44°21' E 028°41'0 0.0
2017-Sep-21 00:29N 44°21' E 028°41'0 0.0
2017-Sep-20 23:59N 44°21' E 028°41'0 0.0
2017-Sep-20 23:29N 44°21' E 028°41'0 0.0
2017-Sep-20 22:59N 44°21' E 028°41'0 0.0
2017-Sep-20 22:26N 44°21' E 028°41'0 0.0
2017-Sep-20 21:56N 44°21' E 028°41'0 0.0
2017-Sep-20 21:26N 44°21' E 028°41'0 0.0
2017-Sep-20 20:56N 44°21' E 028°41'0 0.0
2017-Sep-20 20:29N 44°21' E 028°41'0 0.0
2017-Sep-20 19:59N 44°21' E 028°41'0 0.0
2017-Sep-20 19:29N 44°21' E 028°41'0 0.0
2017-Sep-20 18:59N 44°21' E 028°41'0 0.0
2017-Sep-20 17:50N 44°21' E 028°41'0 0.0
2017-Sep-20 17:14N 44°21' E 028°41'0 0.0
2017-Sep-20 16:53N 44°21' E 028°41'0 0.0
2017-Sep-20 16:23N 44°21' E 028°41'0 0.0
2017-Sep-20 15:53N 44°21' E 028°41'0 0.0
2017-Sep-20 15:29N 44°21' E 028°41'0 0.0
2017-Sep-20 14:59N 44°21' E 028°41'0 0.0
2017-Sep-20 13:56N 44°21' E 028°41'0 0.0
2017-Sep-20 13:29N 44°21' E 028°41'0 0.0
2017-Sep-20 12:59N 44°21' E 028°41'0 0.0
2017-Sep-20 12:28N 44°21' E 028°41'0 0.0
2017-Sep-20 11:58N 44°21' E 028°41'0 0.0
2017-Sep-20 11:28N 44°21' E 028°41'0 0.7
2017-Sep-20 11:01N 44°20' E 028°41'3 6.1
2017-Sep-20 10:31N 44°18' E 028°43'3 5.1
2017-Sep-20 10:00N 44°16' E 028°45'0 0.2
2017-Sep-20 09:26N 44°16' E 028°46'2 5.4
2017-Sep-20 09:01N 44°13' E 028°46'2 4.9
2017-Sep-20 08:31N 44°11' E 028°45'1 1.7
2017-Sep-20 07:55N 44°10' E 028°44'0 0.0
2017-Sep-20 07:28N 44°10' E 028°44'0 0.0
2017-Sep-20 06:58N 44°10' E 028°44'0 0.0
2017-Sep-20 06:28N 44°10' E 028°44'0 0.0
2017-Sep-20 05:58N 44°10' E 028°44'0 0.0
2017-Sep-20 05:28N 44°10' E 028°44'0 0.0
2017-Sep-20 04:58N 44°10' E 028°44'0 0.0
2017-Sep-20 04:28N 44°10' E 028°44'0 0.0
2017-Sep-20 03:58N 44°10' E 028°44'0 0.0
2017-Sep-20 03:28N 44°10' E 028°44'0 0.0
2017-Sep-20 02:58N 44°10' E 028°44'0 0.0
2017-Sep-20 02:28N 44°10' E 028°44'0 0.0
2017-Sep-20 02:01N 44°10' E 028°44'0 0.1
2017-Sep-20 01:31N 44°10' E 028°44'0 0.0
2017-Sep-20 00:57N 44°10' E 028°44'0 0.0
2017-Sep-20 00:30N 44°10' E 028°44'0 0.0
2017-Sep-20 00:00N 44°10' E 028°44'0 0.0
2017-Sep-19 23:30N 44°10' E 028°44'0 0.0
2017-Sep-19 23:00N 44°10' E 028°44'1 2.1
2017-Sep-19 22:30N 44°09' E 028°44'3 6.1
2017-Sep-19 22:00N 44°06' E 028°44'3 6.1
2017-Sep-19 21:30N 44°03' E 028°46'4 7.3
2017-Sep-19 21:00N 44°00' E 028°49'3 6.9
2017-Sep-19 20:30N 43°57' E 028°51'4 7.2
2017-Sep-19 20:00N 43°53' E 028°51'3 6.9
2017-Sep-19 19:30N 43°50' E 028°51'3 6.7
2017-Sep-19 19:00N 43°46' E 028°51'3 6.5
2017-Sep-19 18:30N 43°43' E 028°51'3 6.3
2017-Sep-19 18:00N 43°40' E 028°52'3 6.3
2017-Sep-19 17:30N 43°37' E 028°52'13 6.6
2017-Sep-19 15:33N 43°24' E 028°55'33 6.9
2017-Sep-19 10:44N 42°51' E 028°59'2 7.0
2017-Sep-19 10:25N 42°49' E 028°59'3 7.0
2017-Sep-19 10:00N 42°46' E 028°60'4 7.1
2017-Sep-19 09:30N 42°42' E 029°00'87 7.1
2017-Sep-18 21:12N 41°16' E 029°10'1 7.1
2017-Sep-18 21:00N 41°15' E 029°09'3 7.0
2017-Sep-18 20:30N 41°12' E 029°06'3 6.7
2017-Sep-18 20:00N 41°09' E 029°04'3 5.4
2017-Sep-18 19:30N 41°06' E 029°04'9 6.1
2017-Sep-18 18:05N 40°58' E 028°60'1 6.9
2017-Sep-18 18:00N 40°58' E 028°60'3 5.0
2017-Sep-18 17:25N 40°56' E 028°57'107 4.1
2017-Sep-17 15:26N 40°23' E 026°42'19 6.2
2017-Sep-17 12:24N 40°11' E 026°23'15 5.1
2017-Sep-17 09:28N 40°00' E 026°10'2 5.1
2017-Sep-17 09:00N 39°58' E 026°08'4 3.7
2017-Sep-17 08:00N 39°55' E 026°07'4 4.1
2017-Sep-17 07:02N 39°51' E 026°05'0 6.2
2017-Sep-17 07:00N 39°51' E 026°05'17 6.5
2017-Sep-17 04:24N 39°34' E 026°03'  
Track history (hours):
 
Tides and Currents Weather Stations Pressure Air Temp Water Temp Dewpoint Dewpoint Depression Visibility Wind Speed Wind Dir Waves Ship Positions

Thunder

Last reported at 2017-Sep-21 03:29 UTC. Time now 2017-Sep-21 03:37 UTC.
Position N 44°21' E 028°41'.

Length 83 m; draft 4.6 m.

Type: Cargo ship. MMSI: 214181807.

Date/timePositionNaut miles runAvg speedWind from/ knotsBaromVisibWave heightAir tempDewpointWater temp
2017-Sep-21 03:29N 44°21' E 028°41'0 0.0
2017-Sep-21 02:59N 44°21' E 028°41'0 0.0
2017-Sep-21 02:29N 44°21' E 028°41'0 0.0
2017-Sep-21 01:59N 44°21' E 028°41'0 0.0
2017-Sep-21 01:29N 44°21' E 028°41'0 0.0
2017-Sep-21 00:59N 44°21' E 028°41'0 0.0
2017-Sep-21 00:29N 44°21' E 028°41'0 0.0
2017-Sep-20 23:59N 44°21' E 028°41'0 0.0
2017-Sep-20 23:29N 44°21' E 028°41'0 0.0
2017-Sep-20 22:59N 44°21' E 028°41'0 0.0
2017-Sep-20 22:26N 44°21' E 028°41'0 0.0
2017-Sep-20 21:56N 44°21' E 028°41'0 0.0
2017-Sep-20 21:26N 44°21' E 028°41'0 0.0
2017-Sep-20 20:56N 44°21' E 028°41'0 0.0
2017-Sep-20 20:29N 44°21' E 028°41'0 0.0
2017-Sep-20 19:59N 44°21' E 028°41'0 0.0
2017-Sep-20 19:29N 44°21' E 028°41'0 0.0
2017-Sep-20 18:59N 44°21' E 028°41'0 0.0
2017-Sep-20 17:50N 44°21' E 028°41'0 0.0
2017-Sep-20 17:14N 44°21' E 028°41'0 0.0
2017-Sep-20 16:53N 44°21' E 028°41'0 0.0
2017-Sep-20 16:23N 44°21' E 028°41'0 0.0
2017-Sep-20 15:53N 44°21' E 028°41'0 0.0
2017-Sep-20 15:29N 44°21' E 028°41'0 0.0
2017-Sep-20 14:59N 44°21' E 028°41'0 0.0
2017-Sep-20 13:56N 44°21' E 028°41'0 0.0
2017-Sep-20 13:29N 44°21' E 028°41'0 0.0
2017-Sep-20 12:59N 44°21' E 028°41'0 0.0
2017-Sep-20 12:28N 44°21' E 028°41'0 0.0
2017-Sep-20 11:58N 44°21' E 028°41'0 0.0
2017-Sep-20 11:28N 44°21' E 028°41'0 0.7
2017-Sep-20 11:01N 44°20' E 028°41'3 6.1
2017-Sep-20 10:31N 44°18' E 028°43'3 5.1
2017-Sep-20 10:00N 44°16' E 028°45'0 0.2
2017-Sep-20 09:26N 44°16' E 028°46'2 5.4
2017-Sep-20 09:01N 44°13' E 028°46'2 4.9
2017-Sep-20 08:31N 44°11' E 028°45'1 1.7
2017-Sep-20 07:55N 44°10' E 028°44'0 0.0
2017-Sep-20 07:28N 44°10' E 028°44'0 0.0
2017-Sep-20 06:58N 44°10' E 028°44'0 0.0
2017-Sep-20 06:28N 44°10' E 028°44'0 0.0
2017-Sep-20 05:58N 44°10' E 028°44'0 0.0
2017-Sep-20 05:28N 44°10' E 028°44'0 0.0
2017-Sep-20 04:58N 44°10' E 028°44'0 0.0
2017-Sep-20 04:28N 44°10' E 028°44'0 0.0
2017-Sep-20 03:58N 44°10' E 028°44'0 0.0
2017-Sep-20 03:28N 44°10' E 028°44'0 0.0
2017-Sep-20 02:58N 44°10' E 028°44'0 0.0
2017-Sep-20 02:28N 44°10' E 028°44'0 0.0
2017-Sep-20 02:01N 44°10' E 028°44'0 0.1
2017-Sep-20 01:31N 44°10' E 028°44'0 0.0
2017-Sep-20 00:57N 44°10' E 028°44'0 0.0
2017-Sep-20 00:30N 44°10' E 028°44'0 0.0
2017-Sep-20 00:00N 44°10' E 028°44'0 0.0
2017-Sep-19 23:30N 44°10' E 028°44'0 0.0
2017-Sep-19 23:00N 44°10' E 028°44'1 2.1
2017-Sep-19 22:30N 44°09' E 028°44'3 6.1
2017-Sep-19 22:00N 44°06' E 028°44'3 6.1
2017-Sep-19 21:30N 44°03' E 028°46'4 7.3
2017-Sep-19 21:00N 44°00' E 028°49'3 6.9
2017-Sep-19 20:30N 43°57' E 028°51'4 7.2
2017-Sep-19 20:00N 43°53' E 028°51'3 6.9
2017-Sep-19 19:30N 43°50' E 028°51'3 6.7
2017-Sep-19 19:00N 43°46' E 028°51'3 6.5
2017-Sep-19 18:30N 43°43' E 028°51'3 6.3
2017-Sep-19 18:00N 43°40' E 028°52'3 6.3
2017-Sep-19 17:30N 43°37' E 028°52'13 6.6
2017-Sep-19 15:33N 43°24' E 028°55'33 6.9
2017-Sep-19 10:44N 42°51' E 028°59'2 7.0
2017-Sep-19 10:25N 42°49' E 028°59'3 7.0
2017-Sep-19 10:00N 42°46' E 028°60'4 7.1
2017-Sep-19 09:30N 42°42' E 029°00'87 7.1
2017-Sep-18 21:12N 41°16' E 029°10'1 7.1
2017-Sep-18 21:00N 41°15' E 029°09'3 7.0
2017-Sep-18 20:30N 41°12' E 029°06'3 6.7
2017-Sep-18 20:00N 41°09' E 029°04'3 5.4
2017-Sep-18 19:30N 41°06' E 029°04'9 6.1
2017-Sep-18 18:05N 40°58' E 028°60'1 6.9
2017-Sep-18 18:00N 40°58' E 028°60'3 5.0
2017-Sep-18 17:25N 40°56' E 028°57'107 4.1
2017-Sep-17 15:26N 40°23' E 026°42'19 6.2
2017-Sep-17 12:24N 40°11' E 026°23'15 5.1
2017-Sep-17 09:28N 40°00' E 026°10'2 5.1
2017-Sep-17 09:00N 39°58' E 026°08'4 3.7
2017-Sep-17 08:00N 39°55' E 026°07'4 4.1
2017-Sep-17 07:02N 39°51' E 026°05'0 6.2
2017-Sep-17 07:00N 39°51' E 026°05'17 6.5
2017-Sep-17 04:24N 39°34' E 026°03'  

Dump ship's entire track history